Clipper 3 — ZMT3984 — position and weather

sailwx.info

Track history (hours):
 
Tides and Currents Weather Stations Pressure Air Temp Water Temp Dewpoint Dewpoint Depression Visibility Wind Speed Wind Dir Waves Ship Positions

Clipper 3

Last reported at 2015-Jul-07 19:33 UTC. Time now 2015-Jul-07 19:47 UTC.
Position S 36°50' E 174°46'.

Length 14 m; draft 1 m.

Type: High speed craft. MMSI: 512000741.

Date/timePositionNaut miles runAvg speedWind from/ knotsBaromVisibWave heightAir tempDewpointWater temp
2015-Jul-07 19:33S 36°50' E 174°46'6 0.5
2015-Jul-07 06:16S 36°51' E 174°54'6 3.7
2015-Jul-07 04:34S 36°51' E 174°46'6 2.8
2015-Jul-07 02:16S 36°51' E 174°54'0 0.0
2015-Jul-07 00:16S 36°51' E 174°54'0 0.1
2015-Jul-06 21:04S 36°51' E 174°53'3 6.5
2015-Jul-06 20:33S 36°50' E 174°49'2 2.2
2015-Jul-06 19:33S 36°50' E 174°47'6 0.4
2015-Jul-06 06:16S 36°51' E 174°54'6 3.7
2015-Jul-06 04:34S 36°51' E 174°46'6 2.8
2015-Jul-06 02:15S 36°51' E 174°54'0 0.0
2015-Jul-06 00:15S 36°51' E 174°54'0 0.1
2015-Jul-05 21:06S 36°51' E 174°53'3 6.0
2015-Jul-05 20:34S 36°50' E 174°49'2 2.4
2015-Jul-05 19:33S 36°50' E 174°46'  
2015-Jul-03 06:17S 36°51' E 174°54'6 3.7
2015-Jul-03 04:33S 36°51' E 174°46'6 2.6
2015-Jul-03 02:16S 36°51' E 174°54'0 0.0
2015-Jul-03 00:16S 36°51' E 174°53'0 0.0
2015-Jul-02 21:05S 36°51' E 174°53'3 6.0
2015-Jul-02 20:33S 36°50' E 174°49'2 2.4
2015-Jul-02 19:33S 36°50' E 174°46'6 0.5
2015-Jul-02 06:17S 36°51' E 174°54'7 3.8
2015-Jul-02 04:33S 36°51' E 174°46'6 2.6
2015-Jul-02 02:18S 36°51' E 174°53'0 0.0
2015-Jul-02 00:16S 36°51' E 174°53'0 0.0
2015-Jul-01 21:06S 36°51' E 174°53'3 5.4
2015-Jul-01 20:33S 36°50' E 174°50'3 2.8
2015-Jul-01 19:30S 36°51' E 174°46'4 0.3
2015-Jul-01 06:12S 36°50' E 174°50'4 2.1
2015-Jul-01 04:33S 36°51' E 174°46'6 1.4
2015-Jul-01 00:16S 36°51' E 174°53'0 0.1
2015-Jun-30 21:06S 36°51' E 174°54'3 6.3
2015-Jun-30 20:33S 36°50' E 174°49'3 2.5
2015-Jun-30 19:33S 36°50' E 174°46'6 0.5
2015-Jun-30 06:16S 36°51' E 174°54'7 3.9
2015-Jun-30 04:34S 36°51' E 174°46'6 2.8
2015-Jun-30 02:16S 36°51' E 174°54'0 0.0
2015-Jun-30 00:16S 36°51' E 174°54'6 3.7
2015-Jun-29 22:33S 36°51' E 174°46'6 4.1
2015-Jun-29 21:05S 36°51' E 174°53'4 7.2
2015-Jun-29 20:33S 36°50' E 174°49'2 1.9
2015-Jun-29 19:33S 36°50' E 174°46'6 0.5
2015-Jun-29 06:18S 36°51' E 174°54'6 3.7
2015-Jun-29 04:33S 36°51' E 174°46'6 2.6
2015-Jun-29 02:16S 36°51' E 174°53'0 0.0
2015-Jun-29 00:15S 36°51' E 174°53'0 0.2
2015-Jun-28 21:06S 36°51' E 174°54'4 7.6
2015-Jun-28 20:33S 36°50' E 174°49'2 2.0
2015-Jun-28 19:33S 36°50' E 174°46'2 0.1
2015-Jun-27 23:33S 36°50' E 174°49'  
Track history (hours):
 
Tides and Currents Weather Stations Pressure Air Temp Water Temp Dewpoint Dewpoint Depression Visibility Wind Speed Wind Dir Waves Ship Positions

Clipper 3

Last reported at 2015-Jul-07 19:33 UTC. Time now 2015-Jul-07 19:47 UTC.
Position S 36°50' E 174°46'.

Length 14 m; draft 1 m.

Type: High speed craft. MMSI: 512000741.

Date/timePositionNaut miles runAvg speedWind from/ knotsBaromVisibWave heightAir tempDewpointWater temp
2015-Jul-07 19:33S 36°50' E 174°46'6 0.5
2015-Jul-07 06:16S 36°51' E 174°54'6 3.7
2015-Jul-07 04:34S 36°51' E 174°46'6 2.8
2015-Jul-07 02:16S 36°51' E 174°54'0 0.0
2015-Jul-07 00:16S 36°51' E 174°54'0 0.1
2015-Jul-06 21:04S 36°51' E 174°53'3 6.5
2015-Jul-06 20:33S 36°50' E 174°49'2 2.2
2015-Jul-06 19:33S 36°50' E 174°47'6 0.4
2015-Jul-06 06:16S 36°51' E 174°54'6 3.7
2015-Jul-06 04:34S 36°51' E 174°46'6 2.8
2015-Jul-06 02:15S 36°51' E 174°54'0 0.0
2015-Jul-06 00:15S 36°51' E 174°54'0 0.1
2015-Jul-05 21:06S 36°51' E 174°53'3 6.0
2015-Jul-05 20:34S 36°50' E 174°49'2 2.4
2015-Jul-05 19:33S 36°50' E 174°46'  
2015-Jul-03 06:17S 36°51' E 174°54'6 3.7
2015-Jul-03 04:33S 36°51' E 174°46'6 2.6
2015-Jul-03 02:16S 36°51' E 174°54'0 0.0
2015-Jul-03 00:16S 36°51' E 174°53'0 0.0
2015-Jul-02 21:05S 36°51' E 174°53'3 6.0
2015-Jul-02 20:33S 36°50' E 174°49'2 2.4
2015-Jul-02 19:33S 36°50' E 174°46'6 0.5
2015-Jul-02 06:17S 36°51' E 174°54'7 3.8
2015-Jul-02 04:33S 36°51' E 174°46'6 2.6
2015-Jul-02 02:18S 36°51' E 174°53'0 0.0
2015-Jul-02 00:16S 36°51' E 174°53'0 0.0
2015-Jul-01 21:06S 36°51' E 174°53'3 5.4
2015-Jul-01 20:33S 36°50' E 174°50'3 2.8
2015-Jul-01 19:30S 36°51' E 174°46'4 0.3
2015-Jul-01 06:12S 36°50' E 174°50'4 2.1
2015-Jul-01 04:33S 36°51' E 174°46'6 1.4
2015-Jul-01 00:16S 36°51' E 174°53'0 0.1
2015-Jun-30 21:06S 36°51' E 174°54'3 6.3
2015-Jun-30 20:33S 36°50' E 174°49'3 2.5
2015-Jun-30 19:33S 36°50' E 174°46'6 0.5
2015-Jun-30 06:16S 36°51' E 174°54'7 3.9
2015-Jun-30 04:34S 36°51' E 174°46'6 2.8
2015-Jun-30 02:16S 36°51' E 174°54'0 0.0
2015-Jun-30 00:16S 36°51' E 174°54'6 3.7
2015-Jun-29 22:33S 36°51' E 174°46'6 4.1
2015-Jun-29 21:05S 36°51' E 174°53'4 7.2
2015-Jun-29 20:33S 36°50' E 174°49'2 1.9
2015-Jun-29 19:33S 36°50' E 174°46'6 0.5
2015-Jun-29 06:18S 36°51' E 174°54'6 3.7
2015-Jun-29 04:33S 36°51' E 174°46'6 2.6
2015-Jun-29 02:16S 36°51' E 174°53'0 0.0
2015-Jun-29 00:15S 36°51' E 174°53'0 0.2
2015-Jun-28 21:06S 36°51' E 174°54'4 7.6
2015-Jun-28 20:33S 36°50' E 174°49'2 2.0
2015-Jun-28 19:33S 36°50' E 174°46'2 0.1
2015-Jun-27 23:33S 36°50' E 174°49'  

Dump ship's entire track history